Time;durP1;ratioP1;P1;durP2;ratioP2;P2;SDS_P1;SDS_P2;PMS_P1;PMS_P2;Temp;Humidity;BMP_temperature;BMP_pressure;BME280_temperature;BME280_humidity;BME280_pressure;Samples;Min_cycle;Max_cycle;Signal;HPM_P1;HPM_P2
2023/07/13 00:00:07;;;;;;;0.10;0.10;;;;;;;17.57;98.65;96542.59;4932514;28;20409;-80
2023/07/13 00:02:53;;;;;;;0.10;0.10;;;;;;;17.51;98.87;96547.28;4944719;28;20430;-80
2023/07/13 00:05:41;;;;;;;0.08;0.08;;;;;;;17.38;99.98;96546.09;4946400;28;20137;-79
2023/07/13 00:08:32;;;;;;;0.00;0.00;;;;;;;17.27;100.00;96541.88;4947365;28;20369;-80
2023/07/13 00:11:18;;;;;;;0.10;0.10;;;;;;;17.11;100.00;96535.84;4917880;28;20548;-79
2023/07/13 00:14:04;;;;;;;0.10;0.10;;;;;;;16.99;100.00;96538.97;4946238;28;20057;-81
2023/07/13 00:16:50;;;;;;;0.10;0.10;;;;;;;16.89;100.00;96546.38;4946138;28;20134;-79
2023/07/13 00:19:36;;;;;;;0.00;0.00;;;;;;;16.77;100.00;96545.97;4947919;28;20042;-80
2023/07/13 00:22:25;;;;;;;0.10;0.10;;;;;;;16.67;100.00;96550.34;4945242;28;20094;-79
2023/07/13 00:25:11;;;;;;;0.05;0.05;;;;;;;16.60;100.00;96546.38;4946369;28;20439;-80
2023/07/13 00:27:57;;;;;;;0.10;0.10;;;;;;;16.51;100.00;96538.06;4944369;28;20053;-80
2023/07/13 00:30:43;;;;;;;0.10;0.10;;;;;;;16.41;100.00;96535.44;4944159;28;20038;-81
2023/07/13 00:33:29;;;;;;;0.10;0.10;;;;;;;16.37;100.00;96535.22;4935854;28;20039;-79
2023/07/13 00:36:17;;;;;;;0.10;0.10;;;;;;;16.34;100.00;96533.09;4944472;28;20493;-80
2023/07/13 00:39:03;;;;;;;0.10;0.10;;;;;;;16.34;100.00;96537.66;4937336;28;20434;-80
2023/07/13 00:41:51;;;;;;;0.10;0.10;;;;;;;16.29;100.00;96527.72;4947682;28;20484;-80
2023/07/13 00:44:39;;;;;;;0.00;0.00;;;;;;;16.26;100.00;96536.38;4933667;28;20050;-80
2023/07/13 00:47:25;;;;;;;0.10;0.10;;;;;;;16.16;100.00;96531.06;4944612;28;20465;-80
2023/07/13 00:50:13;;;;;;;0.08;0.08;;;;;;;16.17;100.00;96540.78;4943099;28;20556;-78
2023/07/13 00:52:59;;;;;;;0.10;0.10;;;;;;;16.14;100.00;96535.94;4931894;28;20147;-80
2023/07/13 00:55:50;;;;;;;0.10;0.10;;;;;;;16.09;100.00;96528.69;4946568;28;20086;-80
2023/07/13 00:58:37;;;;;;;0.00;0.00;;;;;;;16.02;100.00;96530.91;4947242;28;20788;-79
2023/07/13 01:01:23;;;;;;;0.00;0.00;;;;;;;16.01;100.00;96545.47;4932901;28;20046;-79
2023/07/13 01:04:09;;;;;;;0.10;0.10;;;;;;;16.01;100.00;96541.97;4947162;28;20576;-79
2023/07/13 01:06:57;;;;;;;0.10;0.10;;;;;;;15.99;100.00;96534.16;4948529;28;20042;-79
2023/07/13 01:09:44;;;;;;;0.10;0.10;;;;;;;15.91;100.00;96545.56;4946823;28;20493;-79
2023/07/13 01:12:30;;;;;;;0.03;0.03;;;;;;;15.86;100.00;96546.38;4935769;28;20042;-79
2023/07/13 01:15:40;;;;;;;0.10;0.10;;;;;;;15.89;100.00;96550.44;4932781;28;20061;-80
2023/07/13 01:18:28;;;;;;;0.10;0.10;;;;;;;15.78;100.00;96546.97;4942874;28;20034;-80
2023/07/13 01:21:16;;;;;;;0.00;0.00;;;;;;;15.75;100.00;96535.94;4924356;28;20043;-80
2023/07/13 01:24:02;;;;;;;0.10;0.10;;;;;;;15.72;100.00;96542.72;4946241;28;20061;-79
2023/07/13 01:26:48;;;;;;;0.10;0.10;;;;;;;15.68;100.00;96546.25;4945241;28;20596;-79
2023/07/13 01:29:41;;;;;;;0.10;0.10;;;;;;;15.61;100.00;96530.34;4933024;28;20077;-79
2023/07/13 01:32:27;;;;;;;0.10;0.10;;;;;;;15.57;100.00;96532.78;4932035;28;20043;-78
2023/07/13 01:35:16;;;;;;;0.10;0.10;;;;;;;15.53;100.00;96542.50;4935034;28;20503;-80
2023/07/13 01:38:02;;;;;;;0.10;0.10;;;;;;;15.52;100.00;96535.50;4937989;28;20576;-78
2023/07/13 01:40:48;;;;;;;0.10;0.10;;;;;;;15.46;100.00;96525.81;4950692;28;20039;-78
2023/07/13 01:43:34;;;;;;;0.10;0.10;;;;;;;15.38;100.00;96531.00;4950179;28;20453;-78
2023/07/13 01:46:20;;;;;;;0.10;0.10;;;;;;;15.36;100.00;96527.78;4938725;28;20043;-79
2023/07/13 01:49:05;;;;;;;0.10;0.10;;;;;;;15.39;100.00;96532.59;4950021;28;20047;-79
2023/07/13 01:51:51;;;;;;;0.10;0.10;;;;;;;15.29;100.00;96528.88;4926884;28;20166;-79
2023/07/13 01:54:40;;;;;;;0.10;0.10;;;;;;;14.94;100.00;96521.75;4948284;28;20042;-79
2023/07/13 01:57:26;;;;;;;0.10;0.10;;;;;;;14.86;100.00;96534.94;4949559;28;20043;-78
2023/07/13 02:00:13;;;;;;;0.10;0.10;;;;;;;14.72;100.00;96532.84;4927453;28;20651;-79
2023/07/13 02:03:02;;;;;;;0.10;0.10;;;;;;;14.50;100.00;96535.03;4949040;28;20450;-78
2023/07/13 02:05:48;;;;;;;0.10;0.10;;;;;;;14.49;100.00;96536.13;4950332;28;20049;-79
2023/07/13 02:08:34;;;;;;;0.10;0.10;;;;;;;14.53;100.00;96536.38;4949071;28;20046;-79
2023/07/13 02:11:20;;;;;;;0.00;0.00;;;;;;;14.62;100.00;96527.44;4948852;28;20046;-79
2023/07/13 02:14:06;;;;;;;0.10;0.10;;;;;;;14.60;100.00;96521.53;4940813;28;20046;-79
2023/07/13 02:16:52;;;;;;;0.00;0.00;;;;;;;14.52;100.00;96530.16;4950097;28;20587;-78
2023/07/13 02:19:37;;;;;;;0.10;0.10;;;;;;;14.40;100.00;96535.03;4948822;28;20185;-79
2023/07/13 02:22:23;;;;;;;0.10;0.10;;;;;;;14.42;100.00;96530.16;4932967;28;20043;-79
2023/07/13 02:25:09;;;;;;;0.10;0.10;;;;;;;14.32;100.00;96538.22;4951178;28;20118;-79
2023/07/13 02:27:55;;;;;;;0.10;0.10;;;;;;;14.31;100.00;96550.06;4947083;28;20046;-79
2023/07/13 02:30:41;;;;;;;0.10;0.10;;;;;;;14.31;100.00;96544.69;4948936;28;20057;-79
2023/07/13 02:33:27;;;;;;;0.10;0.10;;;;;;;14.33;100.00;96543.38;4948303;28;20046;-79
2023/07/13 02:36:16;;;;;;;0.10;0.10;;;;;;;14.35;100.00;96543.09;4934524;28;20454;-78
2023/07/13 02:39:05;;;;;;;0.10;0.10;;;;;;;14.30;100.00;96548.47;4949341;28;20596;-78
2023/07/13 02:41:55;;;;;;;0.10;0.10;;;;;;;14.32;100.00;96546.31;4948476;28;20796;-79
2023/07/13 02:44:41;;;;;;;0.10;0.10;;;;;;;14.35;100.00;96546.59;4949839;28;20053;-78
2023/07/13 02:47:27;;;;;;;0.10;0.10;;;;;;;14.48;100.00;96551.47;4945354;28;20512;-79
2023/07/13 02:50:13;;;;;;;0.10;0.10;;;;;;;14.43;100.00;96548.72;4948021;28;20084;-79
2023/07/13 02:52:58;;;;;;;0.10;0.10;;;;;;;14.23;100.00;96543.34;4938610;28;20093;-80
2023/07/13 02:55:47;;;;;;;0.10;0.10;;;;;;;14.25;100.00;96543.09;4936892;28;20046;-79
2023/07/13 02:58:35;;;;;;;0.10;0.10;;;;;;;14.14;100.00;96553.03;4932041;28;20057;-80
2023/07/13 03:01:22;;;;;;;0.10;0.10;;;;;;;14.13;100.00;96544.16;4943387;28;20043;-79
2023/07/13 03:04:08;;;;;;;0.10;0.10;;;;;;;14.20;100.00;96549.28;4932615;28;20130;-79
2023/07/13 03:06:57;;;;;;;0.10;0.10;;;;;;;14.17;100.00;96545.25;4931785;28;20564;-79
2023/07/13 03:09:45;;;;;;;0.10;0.10;;;;;;;14.19;100.00;96536.91;4928081;28;20093;-79
2023/07/13 03:12:32;;;;;;;0.08;0.08;;;;;;;14.31;100.00;96544.69;4938182;28;20510;-78
2023/07/13 03:15:18;;;;;;;0.10;0.10;;;;;;;14.23;100.00;96535.28;4937644;28;20508;-79
2023/07/13 03:18:05;;;;;;;0.10;0.10;;;;;;;14.22;100.00;96542.53;4945915;28;20560;-79
2023/07/13 03:20:52;;;;;;;0.10;0.10;;;;;;;14.14;100.00;96547.66;4932995;28;20109;-79
2023/07/13 03:23:38;;;;;;;0.10;0.10;;;;;;;14.02;100.00;96542.56;4933662;28;20570;-78
2023/07/13 03:26:24;;;;;;;0.10;0.10;;;;;;;14.02;100.00;96553.31;4946309;28;20050;-79
2023/07/13 03:29:10;;;;;;;0.10;0.10;;;;;;;14.00;100.00;96560.81;4947017;28;20102;-79
2023/07/13 03:31:56;;;;;;;0.10;0.10;;;;;;;13.98;100.00;96552.22;4938461;28;20051;-79
2023/07/13 03:34:42;;;;;;;0.10;0.10;;;;;;;14.09;100.00;96570.00;4947701;28;20070;-79
2023/07/13 03:37:29;;;;;;;0.10;0.10;;;;;;;14.08;100.00;96559.47;4934174;28;20039;-79
2023/07/13 03:40:15;;;;;;;0.10;0.10;;;;;;;14.12;100.00;96557.88;4936853;28;20070;-79
2023/07/13 03:43:03;;;;;;;0.10;0.10;;;;;;;14.17;100.00;96561.41;4936083;28;20683;-79
2023/07/13 03:45:50;;;;;;;0.17;0.17;;;;;;;14.25;100.00;96578.91;4939866;28;20062;-79
2023/07/13 03:48:36;;;;;;;0.10;0.10;;;;;;;14.18;100.00;96568.38;4938106;28;20066;-80
2023/07/13 03:51:21;;;;;;;0.10;0.10;;;;;;;14.16;100.00;96570.53;4926603;28;20175;-80
2023/07/13 03:54:07;;;;;;;0.10;0.10;;;;;;;14.18;100.00;96568.38;4925425;28;20092;-80
2023/07/13 03:56:53;;;;;;;0.10;0.10;;;;;;;14.25;100.00;96573.50;4938300;28;20693;-80
2023/07/13 03:59:41;;;;;;;0.10;0.10;;;;;;;14.31;100.00;96558.94;4934665;28;20468;-80
2023/07/13 04:02:28;;;;;;;0.05;0.05;;;;;;;14.27;100.00;96559.78;4936942;28;20051;-80
2023/07/13 04:05:14;;;;;;;0.10;0.10;;;;;;;14.32;100.00;96562.44;4948248;28;20043;-78
2023/07/13 04:07:59;;;;;;;0.10;0.10;;;;;;;14.26;100.00;96563.56;4948520;28;20094;-78
2023/07/13 04:10:45;;;;;;;0.05;0.05;;;;;;;14.33;100.00;96566.78;4941448;28;20121;-78
2023/07/13 04:13:31;;;;;;;0.10;0.10;;;;;;;14.44;100.00;96563.81;4948544;28;20679;-78
2023/07/13 04:16:18;;;;;;;0.05;0.05;;;;;;;14.54;100.00;96567.59;4946966;28;20043;-78
2023/07/13 04:19:04;;;;;;;0.00;0.00;;;;;;;14.55;100.00;96564.63;4948472;28;20082;-79
2023/07/13 04:21:50;;;;;;;0.10;0.10;;;;;;;14.55;100.00;96570.00;4947873;28;20047;-79
2023/07/13 04:24:37;;;;;;;0.10;0.10;;;;;;;14.59;100.00;96567.59;4948657;28;20051;-79
2023/07/13 04:27:22;;;;;;;0.10;0.10;;;;;;;14.48;100.00;96570.31;4946697;28;20050;-79
2023/07/13 04:30:09;;;;;;;0.10;0.10;;;;;;;14.39;100.00;96576.44;4944633;28;20043;-79
2023/07/13 04:32:55;;;;;;;0.10;0.10;;;;;;;14.34;100.00;96579.16;4961146;28;20042;-78
2023/07/13 04:35:40;;;;;;;0.00;0.00;;;;;;;14.31;100.00;96582.38;4957793;28;20038;-77
2023/07/13 04:38:28;;;;;;;0.10;0.10;;;;;;;14.31;100.00;96582.38;4968286;28;20129;-77
2023/07/13 04:41:15;;;;;;;0.03;0.03;;;;;;;14.23;100.00;96589.09;4969611;28;20109;-79
2023/07/13 04:44:02;;;;;;;0.00;0.00;;;;;;;14.32;100.00;96586.69;4967674;28;20288;-79
2023/07/13 04:46:48;;;;;;;0.10;0.10;;;;;;;14.44;100.00;96585.34;4968011;28;20038;-79
2023/07/13 04:49:34;;;;;;;0.10;0.10;;;;;;;14.53;100.00;96585.63;4968037;28;20052;-79
2023/07/13 04:52:20;;;;;;;0.20;0.10;;;;;;;14.57;100.00;96589.41;4967265;28;20038;-78
2023/07/13 04:55:06;;;;;;;0.10;0.10;;;;;;;14.56;100.00;96590.50;4956099;28;20058;-80
2023/07/13 04:57:52;;;;;;;0.10;0.10;;;;;;;14.63;100.00;96587.50;4968097;28;20065;-80
2023/07/13 05:00:39;;;;;;;0.08;0.08;;;;;;;14.67;100.00;96588.59;4964807;28;20042;-80
2023/07/13 05:03:25;;;;;;;0.10;0.10;;;;;;;14.63;100.00;96582.94;4965884;28;20074;-79
2023/07/13 05:06:11;;;;;;;0.10;0.10;;;;;;;14.53;100.00;96585.63;4970270;28;20050;-80
2023/07/13 05:08:56;;;;;;;0.10;0.10;;;;;;;14.60;100.00;96591.56;4968151;28;20111;-78
2023/07/13 05:11:43;;;;;;;0.10;0.10;;;;;;;14.64;100.00;96594.53;4970961;28;20033;-80
2023/07/13 05:14:29;;;;;;;0.10;0.10;;;;;;;14.68;100.00;96587.50;4959504;28;20471;-80
2023/07/13 05:17:15;;;;;;;0.10;0.10;;;;;;;14.75;100.00;96596.94;4974471;28;20038;-80
2023/07/13 05:20:01;;;;;;;0.10;0.10;;;;;;;14.79;100.00;96597.22;4971196;28;20069;-79
2023/07/13 05:22:47;;;;;;;0.20;0.20;;;;;;;14.76;100.00;96590.47;4970569;28;20074;-79
2023/07/13 05:25:36;;;;;;;0.10;0.10;;;;;;;14.84;100.00;96599.06;4964244;28;20058;-79
2023/07/13 05:28:22;;;;;;;0.10;0.10;;;;;;;14.94;100.00;96596.34;4961786;28;20504;-80
2023/07/13 05:31:09;;;;;;;0.10;0.10;;;;;;;14.99;100.00;96594.47;4971567;28;20058;-80
2023/07/13 05:33:55;;;;;;;0.10;0.10;;;;;;;15.13;100.00;96610.06;4969233;28;20125;-79
2023/07/13 05:36:41;;;;;;;0.10;0.10;;;;;;;15.20;100.00;96605.19;4973293;28;20515;-78
2023/07/13 05:39:27;;;;;;;0.10;0.10;;;;;;;15.24;100.00;96607.06;4970353;28;20050;-79
2023/07/13 05:42:13;;;;;;;0.20;0.20;;;;;;;15.28;100.00;96599.25;4971003;28;20061;-79
2023/07/13 05:44:59;;;;;;;0.10;0.10;;;;;;;15.35;100.00;96607.84;4970252;28;20109;-79
2023/07/13 05:47:44;;;;;;;0.10;0.10;;;;;;;15.39;100.00;96610.78;4957380;28;20129;-79
2023/07/13 05:50:31;;;;;;;0.10;0.10;;;;;;;15.46;100.00;96614.00;4971315;28;20035;-78
2023/07/13 05:53:17;;;;;;;0.10;0.10;;;;;;;15.52;100.00;96604.81;4969688;28;20097;-80
2023/07/13 05:56:03;;;;;;;0.20;0.20;;;;;;;15.59;100.00;96616.13;4969611;28;20452;-79
2023/07/13 05:58:49;;;;;;;0.10;0.10;;;;;;;15.59;100.00;96606.13;4971882;28;20406;-79
2023/07/13 06:01:35;;;;;;;0.10;0.10;;;;;;;15.69;100.00;96618.78;4968280;28;20046;-80
2023/07/13 06:04:21;;;;;;;0.10;0.10;;;;;;;15.76;100.00;96616.59;4968115;28;20042;-79
2023/07/13 06:07:06;;;;;;;0.10;0.10;;;;;;;15.77;100.00;96625.50;4969006;28;20045;-79
2023/07/13 06:09:55;;;;;;;0.10;0.10;;;;;;;15.76;100.00;96627.38;4969279;28;20038;-78
2023/07/13 06:12:41;;;;;;;0.10;0.10;;;;;;;15.78;100.00;96636.00;4967362;28;20053;-80
2023/07/13 06:15:26;;;;;;;0.10;0.10;;;;;;;15.86;100.00;96624.63;4967542;28;20042;-80
2023/07/13 06:18:12;;;;;;;0.10;0.10;;;;;;;15.89;100.00;96631.38;4968638;28;20165;-80
2023/07/13 06:20:58;;;;;;;0.10;0.10;;;;;;;15.93;100.00;96631.63;4969818;28;20046;-80
2023/07/13 06:23:47;;;;;;;0.10;0.10;;;;;;;16.02;100.00;96628.06;4970778;28;20377;-79
2023/07/13 06:26:33;;;;;;;0.20;0.20;;;;;;;16.07;100.00;96638.03;4965423;28;20562;-79
2023/07/13 06:29:19;;;;;;;0.10;0.10;;;;;;;16.08;100.00;96636.94;4969712;28;20615;-79
2023/07/13 06:32:05;;;;;;;0.10;0.10;;;;;;;16.11;100.00;96639.09;4967979;28;20058;-79
2023/07/13 06:34:53;;;;;;;0.10;0.10;;;;;;;16.00;100.00;96641.03;4969928;28;20698;-80
2023/07/13 06:37:39;;;;;;;0.10;0.10;;;;;;;16.06;100.00;96639.13;4966529;28;20042;-79
2023/07/13 06:40:25;;;;;;;0.17;0.17;;;;;;;16.21;100.00;96636.31;4967423;28;20873;-80
2023/07/13 06:43:11;;;;;;;0.10;0.10;;;;;;;16.32;100.00;96648.66;4967740;28;20086;-80
2023/07/13 06:45:59;;;;;;;0.10;0.10;;;;;;;16.37;100.00;96645.94;4967157;28;20565;-79
2023/07/13 06:48:45;;;;;;;0.10;0.10;;;;;;;16.38;100.00;96649.44;4966108;28;20050;-80
2023/07/13 06:51:31;;;;;;;0.15;0.15;;;;;;;16.41;100.00;96643.47;4968641;28;20051;-80
2023/07/13 06:54:17;;;;;;;0.10;0.10;;;;;;;16.46;100.00;96645.34;4969656;28;20359;-81
2023/07/13 06:57:03;;;;;;;0.10;0.10;;;;;;;16.47;100.00;96649.66;4958153;28;20046;-80
2023/07/13 06:59:49;;;;;;;0.10;0.10;;;;;;;16.32;100.00;96654.06;4968227;28;20050;-78
2023/07/13 07:02:35;;;;;;;0.15;0.15;;;;;;;16.43;100.00;96641.31;4967853;28;20046;-79
2023/07/13 07:05:21;;;;;;;0.10;0.10;;;;;;;16.50;100.00;96647.22;4962381;28;20048;-79
2023/07/13 07:08:10;;;;;;;0.10;0.10;;;;;;;16.66;100.00;96647.91;4941950;28;20102;-80
2023/07/13 07:10:55;;;;;;;0.17;0.17;;;;;;;16.82;100.00;96649.41;4966397;28;20097;-78
2023/07/13 07:13:41;;;;;;;0.10;0.10;;;;;;;16.94;100.00;96655.22;4964641;28;20292;-80
2023/07/13 07:16:27;;;;;;;0.10;0.10;;;;;;;16.87;100.00;96652.03;4966861;28;20053;-79
2023/07/13 07:19:13;;;;;;;0.10;0.10;;;;;;;17.22;100.00;96658.22;4967155;28;20314;-79
2023/07/13 07:21:59;;;;;;;0.10;0.10;;;;;;;17.14;100.00;96662.38;4968745;28;20042;-80
2023/07/13 07:24:46;;;;;;;0.20;0.20;;;;;;;17.16;100.00;96652.06;4967575;28;20062;-80
2023/07/13 07:27:32;;;;;;;0.10;0.10;;;;;;;17.22;100.00;96661.75;4968427;28;20054;-78
2023/07/13 07:30:18;;;;;;;0.20;0.20;;;;;;;17.26;100.00;96648.44;4968360;28;20038;-79
2023/07/13 07:33:04;;;;;;;0.20;0.20;;;;;;;17.26;100.00;96649.25;4968256;28;20401;-79
2023/07/13 07:35:50;;;;;;;0.20;0.20;;;;;;;17.26;100.00;96653.84;4969127;28;20042;-79
2023/07/13 07:38:36;;;;;;;0.10;0.10;;;;;;;17.41;100.00;96658.28;4968991;28;20345;-79
2023/07/13 07:41:22;;;;;;;0.13;0.13;;;;;;;17.70;100.00;96655.53;4968507;28;20055;-79
2023/07/13 07:44:09;;;;;;;0.10;0.10;;;;;;;17.80;100.00;96656.25;4966644;28;20046;-79
2023/07/13 07:46:55;;;;;;;0.17;0.17;;;;;;;17.87;100.00;96653.19;4967325;28;20061;-80
2023/07/13 07:49:41;;;;;;;0.10;0.10;;;;;;;17.95;100.00;96665.28;4968209;28;20058;-80
2023/07/13 07:52:27;;;;;;;0.10;0.10;;;;;;;17.53;100.00;96662.22;4968455;28;20310;-80
2023/07/13 07:55:12;;;;;;;0.10;0.10;;;;;;;17.55;100.00;96667.34;4962371;28;20582;-80
2023/07/13 07:57:58;;;;;;;0.10;0.10;;;;;;;17.51;100.00;96675.25;4956409;28;20042;-80
2023/07/13 08:00:44;;;;;;;0.13;0.13;;;;;;;17.51;100.00;96671.72;4968747;28;20130;-80
2023/07/13 08:03:30;;;;;;;0.10;0.10;;;;;;;17.50;100.00;96673.59;4965140;28;20046;-79
2023/07/13 08:06:16;;;;;;;0.10;0.10;;;;;;;17.47;100.00;96674.19;4966803;28;20038;-80
2023/07/13 08:09:04;;;;;;;0.10;0.10;;;;;;;17.62;100.00;96672.41;4967977;28;20050;-80
2023/07/13 08:11:51;;;;;;;0.10;0.10;;;;;;;17.77;100.00;96667.66;4969689;28;20129;-79
2023/07/13 08:14:38;;;;;;;0.20;0.20;;;;;;;18.08;100.00;96664.56;4967076;28;20038;-80
2023/07/13 08:17:24;;;;;;;0.20;0.20;;;;;;;18.23;100.00;96672.47;4934768;28;20082;-79
2023/07/13 08:20:26;;;;;;;0.10;0.10;;;;;;;18.27;100.00;96659.16;4755344;28;20835;-81
2023/07/13 08:23:23;;;;;;;0.20;0.20;;;;;;;18.35;100.00;96666.63;4809086;28;20517;-79
2023/07/13 08:26:09;;;;;;;0.20;0.20;;;;;;;18.39;100.00;96659.53;4964971;28;20105;-79
2023/07/13 08:28:55;;;;;;;0.10;0.10;;;;;;;18.59;100.00;96661.13;4959471;28;20108;-80
2023/07/13 08:31:40;;;;;;;0.10;0.10;;;;;;;18.69;100.00;96661.00;4964908;28;20398;-79
2023/07/13 08:34:26;;;;;;;0.10;0.10;;;;;;;18.77;100.00;96668.47;4952185;28;20038;-79
2023/07/13 08:37:12;;;;;;;0.10;0.10;;;;;;;18.85;100.00;96658.84;4963645;28;20046;-80
2023/07/13 08:39:58;;;;;;;0.10;0.10;;;;;;;19.22;100.00;96657.91;4961436;28;20050;-78
2023/07/13 08:42:46;;;;;;;0.10;0.10;;;;;;;19.42;96.80;96670.31;4965904;28;20209;-79
2023/07/13 08:45:35;;;;;;;0.10;0.10;;;;;;;19.44;97.14;96660.75;4968141;28;20458;-80
2023/07/13 08:48:27;;;;;;;0.15;0.15;;;;;;;19.31;97.18;96663.50;4971733;28;20100;-80
2023/07/13 08:51:27;;;;;;;0.10;0.10;;;;;;;19.39;97.60;96665.50;4968636;28;20101;-79
2023/07/13 08:54:28;;;;;;;0.20;0.20;;;;;;;19.65;97.69;96663.94;4965787;28;20051;-80
2023/07/13 08:57:17;;;;;;;0.20;0.20;;;;;;;19.92;96.36;96656.88;4967425;28;20158;-79
2023/07/13 09:00:05;;;;;;;0.10;0.10;;;;;;;20.17;94.23;96661.00;4955702;28;20054;-78
2023/07/13 09:02:59;;;;;;;0.10;0.10;;;;;;;20.19;94.32;96664.19;4946626;28;20046;-80
2023/07/13 09:05:52;;;;;;;0.10;0.10;;;;;;;20.00;93.31;96648.03;4957440;28;20130;-80
2023/07/13 09:09:08;;;;;;;0.20;0.20;;;;;;;20.11;92.79;96667.63;4968118;28;20073;-80
2023/07/13 09:12:07;;;;;;;0.20;0.20;;;;;;;20.66;90.27;96653.91;4951103;28;20038;-80
2023/07/13 09:14:58;;;;;;;0.10;0.10;;;;;;;20.36;91.24;96666.25;4959834;28;20042;-80
2023/07/13 09:17:52;;;;;;;0.10;0.10;;;;;;;20.40;90.80;96654.50;4729687;28;20899;-81
2023/07/13 09:20:56;;;;;;;0.10;0.10;;;;;;;20.84;90.75;96648.28;4733102;28;22282;-81
2023/07/13 09:23:42;;;;;;;0.10;0.10;;;;;;;20.83;89.91;96657.56;4968009;28;20460;-80
2023/07/13 09:26:32;;;;;;;0.10;0.10;;;;;;;20.55;90.62;96654.16;4969662;28;20050;-80
2023/07/13 09:29:29;;;;;;;0.20;0.20;;;;;;;20.80;89.51;96663.63;4969631;28;20350;-79
2023/07/13 09:32:20;;;;;;;0.10;0.10;;;;;;;20.84;88.28;96659.16;4957411;28;20374;-80
2023/07/13 09:35:12;;;;;;;0.10;0.10;;;;;;;20.86;89.53;96651.53;4969872;28;20038;-80
2023/07/13 09:38:10;;;;;;;0.05;0.05;;;;;;;20.98;87.78;96647.44;4969136;28;20334;-80
2023/07/13 09:41:08;;;;;;;0.20;0.20;;;;;;;21.27;87.02;96650.50;4953958;28;20042;-80
2023/07/13 09:44:10;;;;;;;0.20;0.20;;;;;;;21.62;85.62;96650.66;4971427;28;20489;-80
2023/07/13 09:46:59;;;;;;;0.10;0.10;;;;;;;21.32;85.74;96649.56;4940192;28;20085;-80
2023/07/13 09:49:45;;;;;;;0.10;0.10;;;;;;;21.46;83.51;96652.19;4938476;28;20042;-79
2023/07/13 09:52:43;;;;;;;0.20;0.20;;;;;;;21.78;80.71;96651.84;4932476;28;20050;-78
2023/07/13 09:55:36;;;;;;;0.10;0.10;;;;;;;21.88;79.26;96648.84;4968007;28;20047;-79
2023/07/13 09:58:26;;;;;;;0.17;0.17;;;;;;;22.68;78.69;96649.44;4947234;28;20055;-80
2023/07/13 10:01:12;;;;;;;0.03;0.03;;;;;;;23.10;75.14;96648.94;4968310;28;20057;-79
2023/07/13 10:03:58;;;;;;;0.00;0.00;;;;;;;22.76;74.67;96647.84;4970371;28;20085;-79
2023/07/13 10:06:44;;;;;;;0.10;0.10;;;;;;;22.39;75.73;96654.72;4951122;28;20206;-79
2023/07/13 10:09:32;;;;;;;0.10;0.10;;;;;;;22.96;73.63;96649.13;4968566;28;20113;-79
2023/07/13 10:12:18;;;;;;;0.13;0.13;;;;;;;23.52;69.08;96645.28;4969099;28;20052;-80
2023/07/13 10:15:13;;;;;;;0.00;0.00;;;;;;;23.11;69.71;96643.16;4969814;28;20409;-79
2023/07/13 10:17:59;;;;;;;0.10;0.10;;;;;;;22.78;72.47;96656.50;4955137;28;20042;-81
2023/07/13 10:20:46;;;;;;;0.10;0.10;;;;;;;22.67;70.56;96666.13;4966928;28;20039;-79
2023/07/13 10:23:32;;;;;;;0.20;0.20;;;;;;;22.80;71.86;96643.31;4952768;28;20056;-80
2023/07/13 10:26:25;;;;;;;0.20;0.20;;;;;;;23.38;71.96;96643.88;4954265;28;20043;-80
2023/07/13 10:29:13;;;;;;;0.10;0.10;;;;;;;23.95;67.20;96640.78;4965428;28;20050;-79
2023/07/13 10:31:59;;;;;;;0.10;0.10;;;;;;;24.30;62.65;96655.84;4954636;28;20048;-80
2023/07/13 10:34:47;;;;;;;0.10;0.10;;;;;;;24.54;57.80;96647.00;4964939;28;20527;-80
2023/07/13 10:38:01;;;;;;;0.10;0.10;;;;;;;24.13;64.96;96651.28;4786020;28;20493;-81
2023/07/13 10:41:06;;;;;;;0.10;0.10;;;;;;;23.65;63.76;96654.41;4961537;28;20441;-79
2023/07/13 10:43:55;;;;;;;0.00;0.00;;;;;;;23.49;69.76;96651.38;4954287;28;20129;-79
2023/07/13 10:46:43;;;;;;;0.10;0.10;;;;;;;23.61;71.33;96651.53;4942554;28;20133;-79
2023/07/13 10:49:31;;;;;;;0.00;0.00;;;;;;;23.47;65.70;96664.56;4954050;28;20138;-79
2023/07/13 10:52:46;;;;;;;0.00;0.00;;;;;;;23.41;62.44;96660.41;4968635;28;20039;-80
2023/07/13 10:55:54;;;;;;;0.10;0.10;;;;;;;23.79;64.18;96659.66;4967579;28;20047;-79
2023/07/13 10:58:43;;;;;;;0.10;0.10;;;;;;;23.68;63.58;96664.69;4951161;28;20057;-79
2023/07/13 11:01:48;;;;;;;0.10;0.10;;;;;;;24.70;54.86;96667.16;4966659;28;20165;-80
2023/07/13 11:04:47;;;;;;;0.10;0.10;;;;;;;25.38;53.10;96661.38;4952296;28;20038;-79
2023/07/13 11:07:52;;;;;;;0.10;0.10;;;;;;;25.95;46.21;96655.06;4968129;28;20097;-80
2023/07/13 11:10:54;;;;;;;0.10;0.10;;;;;;;25.05;50.01;96661.38;4953480;28;20494;-79
2023/07/13 11:13:47;;;;;;;0.10;0.10;;;;;;;24.01;60.23;96656.66;4964102;28;20050;-78
2023/07/13 11:16:36;;;;;;;0.00;0.00;;;;;;;23.52;63.32;96669.06;4961751;28;20098;-79
2023/07/13 11:19:22;;;;;;;0.10;0.10;;;;;;;23.26;65.57;96669.91;4953672;28;20417;-79
2023/07/13 11:22:08;;;;;;;0.10;0.10;;;;;;;23.40;65.80;96668.94;4964891;28;20061;-79
2023/07/13 11:25:00;;;;;;;0.05;0.05;;;;;;;23.87;63.78;96669.75;4962703;28;20045;-79
2023/07/13 11:27:51;;;;;;;0.10;0.10;;;;;;;23.87;59.96;96670.53;4805981;28;20417;-80
2023/07/13 11:30:45;;;;;;;0.00;0.00;;;;;;;23.49;63.82;96665.03;4900885;28;20553;-80
2023/07/13 11:33:40;;;;;;;0.10;0.10;;;;;;;23.17;65.72;96671.88;4968015;28;20053;-79
2023/07/13 11:36:54;;;;;;;0.10;0.10;;;;;;;23.35;67.49;96672.66;4957183;28;20082;-81
2023/07/13 11:39:48;;;;;;;0.10;0.10;;;;;;;23.58;60.66;96665.84;4806603;28;20805;-80
2023/07/13 11:42:35;;;;;;;0.10;0.10;;;;;;;24.48;55.05;96678.41;4967021;28;20057;-80
2023/07/13 11:45:25;;;;;;;0.10;0.10;;;;;;;24.80;55.39;96665.13;4965755;28;20188;-80
2023/07/13 11:48:31;;;;;;;0.10;0.10;;;;;;;24.33;54.04;96674.34;4953997;28;20055;-81
2023/07/13 11:51:38;;;;;;;0.10;0.10;;;;;;;24.47;50.81;96670.56;4967636;28;20532;-81
2023/07/13 11:54:34;;;;;;;0.10;0.10;;;;;;;24.00;57.83;96684.31;4961314;28;20065;-81
2023/07/13 11:57:35;;;;;;;0.10;0.10;;;;;;;23.42;62.34;96694.78;4967855;28;20035;-81
2023/07/13 12:00:27;;;;;;;0.10;0.10;;;;;;;24.01;61.34;96677.72;4965478;28;20041;-80
2023/07/13 12:03:20;;;;;;;0.10;0.10;;;;;;;24.69;54.35;96676.50;4966491;28;20043;-80
2023/07/13 12:06:23;;;;;;;0.10;0.10;;;;;;;26.32;39.35;96677.00;4953042;28;20044;-81
2023/07/13 12:09:18;;;;;;;0.03;0.03;;;;;;;25.18;43.37;96675.94;4963938;28;20035;-80
2023/07/13 12:12:11;;;;;;;0.00;0.00;;;;;;;24.35;46.07;96672.06;4956498;28;20046;-80
2023/07/13 12:14:57;;;;;;;0.10;0.10;;;;;;;23.66;53.85;96677.06;4966250;28;20080;-80
2023/07/13 12:17:43;;;;;;;0.00;0.00;;;;;;;23.27;61.25;96673.47;4952041;28;20046;-80
2023/07/13 12:20:37;;;;;;;0.10;0.10;;;;;;;23.01;64.12;96676.22;4947786;28;20053;-80
2023/07/13 12:23:30;;;;;;;0.10;0.10;;;;;;;22.95;64.25;96678.31;4936431;28;20042;-79
2023/07/13 12:26:18;;;;;;;0.10;0.10;;;;;;;23.45;61.87;96683.22;4964788;28;20536;-79
2023/07/13 12:29:06;;;;;;;0.10;0.10;;;;;;;24.09;58.50;96687.81;4962851;28;20043;-79
2023/07/13 12:31:52;;;;;;;0.10;0.10;;;;;;;25.67;46.26;96687.78;4961665;28;20105;-79
2023/07/13 12:34:55;;;;;;;0.10;0.10;;;;;;;27.53;35.97;96691.47;4964041;28;20635;-79
2023/07/13 12:37:46;;;;;;;0.10;0.10;;;;;;;26.63;39.14;96679.94;4965910;28;20049;-79
2023/07/13 12:40:34;;;;;;;0.10;0.10;;;;;;;25.67;39.06;96671.34;4946946;28;20102;-78
2023/07/13 12:43:22;;;;;;;0.10;0.10;;;;;;;24.75;45.68;96693.53;4966098;28;20050;-80
2023/07/13 12:46:28;;;;;;;0.00;0.00;;;;;;;24.23;45.71;96698.50;4967736;28;20130;-79
2023/07/13 12:49:15;;;;;;;0.10;0.10;;;;;;;25.05;46.73;96704.38;4967990;28;20054;-80
2023/07/13 12:52:03;;;;;;;0.10;0.10;;;;;;;24.65;47.83;96705.63;4965677;28;20061;-79
2023/07/13 12:54:57;;;;;;;0.10;0.10;;;;;;;24.00;51.49;96715.19;4964386;28;20053;-80
2023/07/13 12:57:56;;;;;;;0.00;0.00;;;;;;;23.80;54.30;96704.97;4953207;28;20042;-80
2023/07/13 13:00:52;;;;;;;0.10;0.10;;;;;;;23.76;56.79;96712.22;4963625;28;20069;-80
2023/07/13 13:03:41;;;;;;;0.03;0.03;;;;;;;23.86;60.92;96712.66;4965400;28;20034;-80
2023/07/13 13:06:28;;;;;;;0.10;0.10;;;;;;;23.93;61.59;96716.81;4965819;28;20056;-80
2023/07/13 13:09:18;;;;;;;0.10;0.10;;;;;;;23.88;58.96;96715.06;4965702;28;20121;-80